createdAt,value
2022-11-15T01:09:37.913Z,10.97
2022-11-15T01:12:23.977Z,11.05
2022-11-15T01:15:09.766Z,11.68
2022-11-15T01:17:55.915Z,11.70
2022-11-15T01:20:43.038Z,13.07
2022-11-15T01:23:28.968Z,13.07
2022-11-15T01:26:16.595Z,13.45
2022-11-15T01:29:02.421Z,13.52
2022-11-15T01:31:48.632Z,12.77
2022-11-15T01:34:34.672Z,13.00
2022-11-15T01:37:20.465Z,13.30
2022-11-15T01:40:09.820Z,12.57
2022-11-15T01:42:55.920Z,13.65
2022-11-15T01:45:41.870Z,13.35
2022-11-15T01:48:33.078Z,13.00
2022-11-15T01:51:20.504Z,12.20
2022-11-15T01:54:10.132Z,13.02
2022-11-15T01:57:05.510Z,12.75
2022-11-15T01:59:51.752Z,13.50
2022-11-15T02:02:38.603Z,13.13
2022-11-15T02:05:24.487Z,12.47
2022-11-15T02:08:20.705Z,13.45
2022-11-15T02:11:10.012Z,12.65
2022-11-15T02:13:57.524Z,12.70
2022-11-15T02:16:53.154Z,13.23
2022-11-15T02:19:56.258Z,13.07
2022-11-15T02:23:03.762Z,12.93
2022-11-15T02:26:04.816Z,13.73
2022-11-15T02:28:56.437Z,12.40
2022-11-15T02:32:05.325Z,12.75
2022-11-15T02:35:03.304Z,12.10
2022-11-15T02:38:00.649Z,11.15
2022-11-15T02:41:25.412Z,12.88
2022-11-15T02:44:16.030Z,13.07
2022-11-15T02:47:16.220Z,12.55
2022-11-15T02:50:09.137Z,12.40
2022-11-15T02:52:55.203Z,13.25
2022-11-15T02:55:51.173Z,13.57
2022-11-15T02:59:05.515Z,12.95
2022-11-15T03:02:02.449Z,13.23
2022-11-15T03:04:57.516Z,12.53
2022-11-15T03:07:49.437Z,12.82
2022-11-15T03:11:10.782Z,11.75
2022-11-15T03:14:24.175Z,12.37
2022-11-15T03:17:32.010Z,10.35
2022-11-15T03:20:19.893Z,9.10
2022-11-15T03:23:08.816Z,8.35
2022-11-15T03:25:56.402Z,8.07
2022-11-15T03:29:04.686Z,8.45
2022-11-15T03:31:58.491Z,6.40
2022-11-15T03:35:03.482Z,4.70
2022-11-15T03:38:00.915Z,5.00
2022-11-15T03:40:52.335Z,3.72
2022-11-15T03:43:47.443Z,4.12
2022-11-15T03:46:35.972Z,3.45
2022-11-15T03:49:27.239Z,4.70
2022-11-15T03:52:13.402Z,5.60
2022-11-15T03:55:04.249Z,10.93
2022-11-15T03:57:54.989Z,10.13
2022-11-15T04:00:40.844Z,9.82
2022-11-15T04:03:27.222Z,9.33
2022-11-15T04:06:13.254Z,11.20
2022-11-15T04:08:59.235Z,10.02
2022-11-15T04:11:45.087Z,11.07
2022-11-15T04:14:31.160Z,12.77
2022-11-15T04:17:16.841Z,12.77
2022-11-15T04:20:39.048Z,12.15
2022-11-15T04:23:43.919Z,12.27
2022-11-15T04:26:30.078Z,12.88
2022-11-15T04:29:34.855Z,13.25
2022-11-15T04:32:20.690Z,12.37
2022-11-15T04:35:07.089Z,12.50
2022-11-15T04:37:53.651Z,13.85
2022-11-15T04:40:39.451Z,13.52
2022-11-15T04:43:25.715Z,15.75
2022-11-15T04:46:11.563Z,15.30
2022-11-15T04:48:59.171Z,15.13
2022-11-15T04:51:45.760Z,14.25
2022-11-15T04:54:31.525Z,13.18
2022-11-15T04:57:17.457Z,13.52
2022-11-15T05:00:07.920Z,14.00
2022-11-15T05:03:12.700Z,14.05
2022-11-15T05:05:59.328Z,14.52
2022-11-15T05:08:45.337Z,13.80
2022-11-15T05:11:31.536Z,14.13
2022-11-15T05:14:17.495Z,12.90
2022-11-15T05:17:03.349Z,13.32
2022-11-15T05:19:58.854Z,12.88
2022-11-15T05:22:45.176Z,12.98
2022-11-15T05:25:31.253Z,12.00
2022-11-15T05:28:17.219Z,12.47
2022-11-15T05:31:15.139Z,12.63
2022-11-15T05:34:05.862Z,12.25
2022-11-15T05:36:51.551Z,11.40
2022-11-15T05:39:37.696Z,11.82
2022-11-15T05:42:23.725Z,10.23
2022-11-15T05:45:10.349Z,11.30
2022-11-15T05:47:57.993Z,11.68
2022-11-15T05:50:46.874Z,10.85
2022-11-15T05:53:33.387Z,12.13
2022-11-15T05:56:19.847Z,12.23
2022-11-15T05:59:05.830Z,12.45
2022-11-15T06:01:51.951Z,14.15
2022-11-15T06:04:38.678Z,14.52
2022-11-15T06:07:24.476Z,16.33
2022-11-15T06:10:10.775Z,17.17
2022-11-15T06:13:06.905Z,17.02
2022-11-15T06:15:56.640Z,16.17
2022-11-15T06:18:42.659Z,13.45
2022-11-15T06:21:31.561Z,13.75
2022-11-15T06:24:17.468Z,16.63
2022-11-15T06:27:03.485Z,15.75
2022-11-15T06:29:49.279Z,17.65
2022-11-15T06:32:35.594Z,17.17
2022-11-15T06:35:21.561Z,16.65
2022-11-15T06:38:09.722Z,19.03
2022-11-15T06:40:55.659Z,18.02
2022-11-15T06:43:41.951Z,14.95
2022-11-15T06:46:27.704Z,15.10
2022-11-15T06:49:13.595Z,14.87
2022-11-15T06:51:59.469Z,15.60
2022-11-15T06:54:45.417Z,16.08
2022-11-15T06:57:31.497Z,15.52
2022-11-15T07:00:19.555Z,16.10
2022-11-15T07:03:05.523Z,16.42
2022-11-15T07:05:54.500Z,16.97
2022-11-15T07:08:42.587Z,16.65
2022-11-15T07:11:28.242Z,15.93
2022-11-15T07:14:14.067Z,16.48
2022-11-15T07:16:59.993Z,16.62
2022-11-15T07:19:46.899Z,16.17
2022-11-15T07:22:33.676Z,16.05
2022-11-15T07:25:19.514Z,17.08
2022-11-15T07:28:05.990Z,16.73
2022-11-15T07:30:52.472Z,16.17
2022-11-15T07:33:38.581Z,16.70
2022-11-15T07:36:24.434Z,16.08
2022-11-15T07:39:10.902Z,17.52
2022-11-15T07:42:16.528Z,18.10
2022-11-15T07:45:02.366Z,17.83
2022-11-15T07:47:49.335Z,16.73
2022-11-15T07:50:35.996Z,17.42
2022-11-15T07:53:22.240Z,17.65
2022-11-15T07:56:11.085Z,17.45
2022-11-15T07:58:58.522Z,17.15
2022-11-15T08:01:44.759Z,21.77
2022-11-15T08:04:30.738Z,22.13
2022-11-15T08:07:16.826Z,19.02
2022-11-15T08:10:04.887Z,17.85
2022-11-15T08:13:04.727Z,18.00
2022-11-15T08:15:56.289Z,17.40
2022-11-15T08:18:43.726Z,17.55
2022-11-15T08:21:29.745Z,16.55
2022-11-15T08:24:16.048Z,16.23
2022-11-15T08:27:02.243Z,18.12
2022-11-15T08:29:56.788Z,16.83
2022-11-15T08:32:45.266Z,16.87
2022-11-15T08:35:31.215Z,16.27
2022-11-15T08:38:17.452Z,16.10
2022-11-15T08:41:05.457Z,16.27
2022-11-15T08:43:51.654Z,15.07
2022-11-15T08:46:37.775Z,16.17
2022-11-15T08:49:23.786Z,17.37
2022-11-15T08:52:10.211Z,15.98
2022-11-15T08:54:56.320Z,19.77
2022-11-15T08:57:42.281Z,16.47
2022-11-15T09:00:28.431Z,16.15
2022-11-15T09:03:14.376Z,20.15
2022-11-15T09:06:01.568Z,24.65
2022-11-15T09:08:48.408Z,23.08
2022-11-15T09:11:34.764Z,24.40
2022-11-15T09:14:21.000Z,29.40
2022-11-15T09:17:10.467Z,22.30
2022-11-15T09:19:56.504Z,18.92
2022-11-15T09:22:42.669Z,17.80
2022-11-15T09:25:29.706Z,17.27
2022-11-15T09:28:15.700Z,16.75
2022-11-15T09:31:02.805Z,17.15
2022-11-15T09:33:48.817Z,16.83
2022-11-15T09:36:34.924Z,16.33
2022-11-15T09:39:20.830Z,16.20
2022-11-15T09:42:12.376Z,16.30
2022-11-15T09:45:16.934Z,18.20
2022-11-15T09:48:40.616Z,16.95
2022-11-15T09:51:15.315Z,17.00
2022-11-15T09:56:46.827Z,17.75
2022-11-15T09:59:33.109Z,17.20
2022-11-15T10:02:19.199Z,17.12
2022-11-15T10:04:47.429Z,23.38
2022-11-15T10:07:19.695Z,20.13
2022-11-15T10:09:52.795Z,19.20
2022-11-15T10:12:20.285Z,18.95
2022-11-15T10:14:54.401Z,18.33
2022-11-15T10:17:43.399Z,18.67
2022-11-15T10:20:18.235Z,18.03
2022-11-15T10:22:48.745Z,19.05
2022-11-15T10:25:31.112Z,17.65
2022-11-15T10:28:17.376Z,18.62
2022-11-15T10:30:51.144Z,17.80
2022-11-15T10:33:37.358Z,18.50
2022-11-15T10:36:14.734Z,17.55
2022-11-15T10:38:51.264Z,19.33
2022-11-15T10:41:28.088Z,17.67
2022-11-15T10:44:19.960Z,18.23
2022-11-15T10:47:22.357Z,17.53
2022-11-15T10:50:00.635Z,17.77
2022-11-15T10:52:29.970Z,18.48
2022-11-15T10:55:12.006Z,19.00
2022-11-15T10:57:40.462Z,19.35
2022-11-15T11:00:21.580Z,19.57
2022-11-15T11:03:08.232Z,18.65
2022-11-15T11:05:42.589Z,19.05
2022-11-15T11:08:16.885Z,18.87
2022-11-15T11:11:00.027Z,20.08
2022-11-15T11:13:34.448Z,18.87
2022-11-15T11:16:10.901Z,19.23
2022-11-15T11:18:47.092Z,19.90
2022-11-15T11:21:32.970Z,18.92
2022-11-15T11:24:12.190Z,19.98
2022-11-15T11:26:46.096Z,19.20
2022-11-15T11:29:28.702Z,18.58
2022-11-15T11:32:15.449Z,20.12
2022-11-15T11:35:10.749Z,20.15
2022-11-15T11:37:41.645Z,20.73
2022-11-15T11:40:44.116Z,19.23
2022-11-15T11:43:19.342Z,19.70
2022-11-15T11:46:23.078Z,20.73
2022-11-15T11:49:14.081Z,21.17
2022-11-15T11:51:47.617Z,21.65
2022-11-15T11:54:26.667Z,21.93
2022-11-15T11:56:55.418Z,21.40
2022-11-15T11:59:41.649Z,22.08
2022-11-15T12:02:16.946Z,21.73
2022-11-15T12:04:49.732Z,20.83
2022-11-15T12:07:20.240Z,20.47
2022-11-15T12:10:17.366Z,21.92
2022-11-15T12:13:04.982Z,21.55
2022-11-15T12:15:38.294Z,22.40
2022-11-15T12:18:08.263Z,24.45
2022-11-15T12:20:40.625Z,26.70
2022-11-15T12:23:25.799Z,26.73
2022-11-15T12:25:54.782Z,26.90
2022-11-15T12:29:07.074Z,27.08
2022-11-15T12:31:35.392Z,26.35
2022-11-15T12:34:07.569Z,28.07
2022-11-15T12:36:44.271Z,28.52
2022-11-15T12:39:13.041Z,28.05
2022-11-15T12:41:46.086Z,30.33
2022-11-15T12:44:31.945Z,29.05
2022-11-15T12:47:03.219Z,28.00
2022-11-15T12:49:30.617Z,28.55
2022-11-15T12:51:58.025Z,27.50
2022-11-15T12:54:25.733Z,27.87
2022-11-15T12:57:05.311Z,29.02
2022-11-15T13:00:05.732Z,26.83
2022-11-15T13:02:46.265Z,27.87
2022-11-15T13:05:17.112Z,26.95
2022-11-15T13:07:44.527Z,27.37
2022-11-15T13:10:12.834Z,27.27
2022-11-15T13:12:46.528Z,27.53
2022-11-15T13:15:13.898Z,27.65
2022-11-15T13:17:52.033Z,26.20
2022-11-15T13:20:31.004Z,28.42
2022-11-15T13:23:03.387Z,27.52
2022-11-15T13:25:37.042Z,27.73
2022-11-15T13:28:22.975Z,28.48
2022-11-15T13:30:59.980Z,27.48
2022-11-15T13:33:36.653Z,28.30
2022-11-15T13:36:13.450Z,27.58
2022-11-15T13:38:42.777Z,29.30
2022-11-15T13:41:21.891Z,26.27
2022-11-15T13:43:51.566Z,26.83
2022-11-15T13:46:21.567Z,24.95
2022-11-15T13:49:01.266Z,24.65
2022-11-15T13:51:52.270Z,24.23
2022-11-15T13:54:32.263Z,22.50
2022-11-15T13:57:04.675Z,23.48
2022-11-15T13:59:37.571Z,23.98
2022-11-15T14:02:14.277Z,25.35
2022-11-15T14:04:58.102Z,23.63
2022-11-15T14:07:28.923Z,24.42
2022-11-15T14:09:57.335Z,24.92
2022-11-15T14:12:35.359Z,23.83
2022-11-15T14:15:30.425Z,29.05
2022-11-15T14:17:57.975Z,29.87
2022-11-15T14:20:33.708Z,28.62
2022-11-15T14:23:06.354Z,25.75
2022-11-15T14:25:36.104Z,26.67
2022-11-15T14:28:20.191Z,26.00
2022-11-15T14:30:51.118Z,27.70
2022-11-15T14:33:26.686Z,24.23
2022-11-15T14:35:54.412Z,26.85
2022-11-15T14:38:21.867Z,25.77
2022-11-15T14:40:49.914Z,23.70
2022-11-15T14:43:17.935Z,24.77
2022-11-15T14:45:45.380Z,24.58
2022-11-15T14:48:12.999Z,23.67
2022-11-15T14:50:41.578Z,23.98
2022-11-15T14:53:13.655Z,28.38
2022-11-15T14:55:41.592Z,25.97
2022-11-15T14:58:09.836Z,26.27
2022-11-15T15:00:39.789Z,25.50
2022-11-15T15:03:08.231Z,24.40
2022-11-15T15:05:41.967Z,26.00
2022-11-15T15:08:10.309Z,26.50
2022-11-15T15:10:43.667Z,29.65
2022-11-15T15:13:19.047Z,28.40
2022-11-15T15:15:47.135Z,28.83
2022-11-15T15:18:16.336Z,26.23
2022-11-15T15:20:46.535Z,26.27
2022-11-15T15:23:19.027Z,26.10
2022-11-15T15:25:49.706Z,24.52
2022-11-15T15:28:17.377Z,25.48
2022-11-15T15:30:44.865Z,25.08
2022-11-15T15:33:12.581Z,25.00
2022-11-15T15:35:40.094Z,27.98
2022-11-15T15:38:07.533Z,31.42
2022-11-15T15:40:35.365Z,44.63
2022-11-15T15:43:02.874Z,46.35
2022-11-15T15:45:30.900Z,36.50
2022-11-15T15:47:58.817Z,34.40
2022-11-15T15:50:27.387Z,34.03
2022-11-15T15:52:57.162Z,27.92
2022-11-15T15:55:25.292Z,29.17
2022-11-15T15:57:53.329Z,31.97
2022-11-15T16:00:24.600Z,28.62
2022-11-15T16:02:53.108Z,29.52
2022-11-15T16:05:20.807Z,28.50
2022-11-15T16:07:48.919Z,28.27
2022-11-15T16:10:30.261Z,26.77
2022-11-15T16:13:07.356Z,26.33
2022-11-15T16:15:35.981Z,27.55
2022-11-15T16:18:04.557Z,26.80
2022-11-15T16:20:38.169Z,27.45
2022-11-15T16:23:09.592Z,26.70
2022-11-15T16:25:57.740Z,27.52
2022-11-15T16:28:30.798Z,26.95
2022-11-15T16:31:03.138Z,25.58
2022-11-15T16:33:31.478Z,26.85
2022-11-15T16:35:59.254Z,27.27
2022-11-15T16:38:26.825Z,26.77
2022-11-15T16:40:54.671Z,26.87
2022-11-15T16:43:22.190Z,25.15
2022-11-15T16:45:50.784Z,26.40
2022-11-15T16:48:26.752Z,25.40
2022-11-15T16:50:58.522Z,25.10
2022-11-15T16:53:27.649Z,25.17
2022-11-15T16:55:55.673Z,24.23
2022-11-15T16:58:23.297Z,25.15
2022-11-15T17:00:55.065Z,25.17
2022-11-15T17:03:24.023Z,24.92
2022-11-15T17:05:51.898Z,22.87
2022-11-15T17:08:21.975Z,23.15
2022-11-15T17:10:49.952Z,23.40
2022-11-15T17:13:17.843Z,24.60
2022-11-15T17:15:45.345Z,23.65
2022-11-15T17:18:14.138Z,22.30
2022-11-15T17:20:43.288Z,24.20
2022-11-15T17:23:14.790Z,23.35
2022-11-15T17:25:42.974Z,24.03
2022-11-15T17:28:10.713Z,24.30
2022-11-15T17:30:43.400Z,22.83
2022-11-15T17:33:11.242Z,22.52
2022-11-15T17:35:38.715Z,23.02
2022-11-15T17:38:06.195Z,24.40
2022-11-15T17:40:34.115Z,22.35
2022-11-15T17:43:02.557Z,23.27
2022-11-15T17:45:30.155Z,21.50
2022-11-15T17:47:59.191Z,22.75
2022-11-15T17:50:26.878Z,21.03
2022-11-15T17:52:54.998Z,20.37
2022-11-15T17:55:22.770Z,19.05
2022-11-15T17:57:50.362Z,18.70
2022-11-15T18:00:20.889Z,18.75
2022-11-15T18:02:48.771Z,18.37
2022-11-15T18:05:16.266Z,18.33
2022-11-15T18:07:43.764Z,17.87
2022-11-15T18:10:11.965Z,18.27
2022-11-15T18:12:39.435Z,17.90
2022-11-15T18:15:07.313Z,19.13
2022-11-15T18:17:35.055Z,20.88
2022-11-15T18:20:04.612Z,22.42
2022-11-15T18:22:32.346Z,21.73
2022-11-15T18:25:00.137Z,20.50
2022-11-15T18:27:27.581Z,23.60
2022-11-15T18:29:57.220Z,23.10
2022-11-15T18:32:24.974Z,24.17
2022-11-15T18:34:52.454Z,23.20
2022-11-15T18:37:19.841Z,18.65
2022-11-15T18:39:52.713Z,18.30
2022-11-15T18:42:21.295Z,17.37
2022-11-15T18:44:49.036Z,20.33
2022-11-15T18:47:16.505Z,19.23
2022-11-15T18:49:44.491Z,18.12
2022-11-15T18:52:12.379Z,19.40
2022-11-15T18:54:39.806Z,18.70
2022-11-15T18:57:07.349Z,20.12
2022-11-15T18:59:35.079Z,19.77
2022-11-15T19:02:02.526Z,19.12
2022-11-15T19:04:30.084Z,17.97
2022-11-15T19:06:57.950Z,17.65
2022-11-15T19:09:31.944Z,17.67
2022-11-15T19:11:59.752Z,17.00
2022-11-15T19:14:30.379Z,17.00
2022-11-15T19:16:58.327Z,16.10
2022-11-15T19:19:28.429Z,17.65
2022-11-15T19:21:57.507Z,17.62
2022-11-15T19:24:27.082Z,17.35
2022-11-15T19:26:55.046Z,17.98
2022-11-15T19:29:22.587Z,17.47
2022-11-15T19:31:50.029Z,16.87
2022-11-15T19:34:18.095Z,18.25
2022-11-15T19:36:46.235Z,17.50
2022-11-15T19:39:15.002Z,17.02
2022-11-15T19:41:43.741Z,15.97
2022-11-15T19:44:12.307Z,15.68
2022-11-15T19:46:40.267Z,15.95
2022-11-15T19:49:10.760Z,15.90
2022-11-15T19:51:39.542Z,14.68
2022-11-15T19:54:08.988Z,15.30
2022-11-15T19:56:37.492Z,14.23
2022-11-15T19:59:05.285Z,14.98
2022-11-15T20:01:36.399Z,14.52
2022-11-15T20:04:07.096Z,13.57
2022-11-15T20:06:37.535Z,14.13
2022-11-15T20:09:05.352Z,13.82
2022-11-15T20:11:34.161Z,14.05
2022-11-15T20:14:06.347Z,17.30
2022-11-15T20:16:34.043Z,15.48
2022-11-15T20:19:01.604Z,15.60
2022-11-15T20:21:29.264Z,15.30
2022-11-15T20:23:56.959Z,14.80
2022-11-15T20:26:24.501Z,15.55
2022-11-15T20:28:52.069Z,20.42
2022-11-15T20:31:19.871Z,20.10
2022-11-15T20:33:47.639Z,20.08
2022-11-15T20:36:15.936Z,18.02
2022-11-15T20:38:44.648Z,18.45
2022-11-15T20:41:13.007Z,18.37
2022-11-15T20:43:43.404Z,19.43
2022-11-15T20:46:12.405Z,17.40
2022-11-15T20:48:40.493Z,17.55
2022-11-15T20:51:12.281Z,17.80
2022-11-15T20:53:44.914Z,17.92
2022-11-15T20:56:14.978Z,16.53
2022-11-15T20:58:44.720Z,16.50
2022-11-15T21:01:14.313Z,16.62
2022-11-15T21:03:41.952Z,16.77
2022-11-15T21:06:10.427Z,18.25
2022-11-15T21:08:56.435Z,17.17
2022-11-15T21:11:43.936Z,17.08
2022-11-15T21:14:11.519Z,17.60
2022-11-15T21:16:39.219Z,17.50
2022-11-15T21:19:07.083Z,17.27
2022-11-15T21:21:36.264Z,15.77
2022-11-15T21:24:09.002Z,14.70
2022-11-15T21:26:36.930Z,14.27
2022-11-15T21:29:05.209Z,13.93
2022-11-15T21:31:33.091Z,14.55
2022-11-15T21:34:02.522Z,13.67
2022-11-15T21:36:30.417Z,14.68
2022-11-15T21:38:58.118Z,14.40
2022-11-15T21:41:25.586Z,12.20
2022-11-15T21:43:57.686Z,11.70
2022-11-15T21:46:25.168Z,12.30
2022-11-15T21:48:52.999Z,12.27
2022-11-15T21:51:20.505Z,13.05
2022-11-15T21:53:48.053Z,10.88
2022-11-15T21:56:15.856Z,11.15
2022-11-15T21:58:43.275Z,11.53
2022-11-15T22:01:29.867Z,11.85
2022-11-15T22:03:57.631Z,11.25
2022-11-15T22:06:25.034Z,11.65
2022-11-15T22:08:52.517Z,11.88
2022-11-15T22:11:20.406Z,12.57
2022-11-15T22:13:47.803Z,11.82
2022-11-15T22:16:15.272Z,11.57
2022-11-15T22:18:43.045Z,11.73
2022-11-15T22:21:12.672Z,11.07
2022-11-15T22:23:40.722Z,10.63
2022-11-15T22:26:11.346Z,10.98
2022-11-15T22:28:39.221Z,12.60
2022-11-15T22:31:07.347Z,12.13
2022-11-15T22:33:35.822Z,11.80
2022-11-15T22:36:04.486Z,12.80
2022-11-15T22:38:32.320Z,12.27
2022-11-15T22:41:00.435Z,12.90
2022-11-15T22:43:28.286Z,13.62
2022-11-15T22:45:57.588Z,13.18
2022-11-15T22:48:30.417Z,13.67
2022-11-15T22:50:59.332Z,12.82
2022-11-15T22:53:27.546Z,13.02
2022-11-15T22:56:00.280Z,13.70
2022-11-15T22:58:29.575Z,13.98
2022-11-15T23:01:00.795Z,13.77
2022-11-15T23:03:29.196Z,13.23
2022-11-15T23:06:02.089Z,13.35
2022-11-15T23:08:32.961Z,13.82
2022-11-15T23:11:20.544Z,13.93
2022-11-15T23:14:08.171Z,14.57
2022-11-15T23:16:55.520Z,14.20
2022-11-15T23:19:43.171Z,14.23
2022-11-15T23:22:48.499Z,14.00
2022-11-15T23:25:36.145Z,13.90
2022-11-15T23:28:04.206Z,15.20
2022-11-15T23:30:54.634Z,16.20
2022-11-15T23:33:41.723Z,12.90
2022-11-15T23:36:09.387Z,14.73
2022-11-15T23:38:37.525Z,14.00
2022-11-15T23:41:06.028Z,13.67
2022-11-15T23:43:33.676Z,14.73
2022-11-15T23:46:02.028Z,16.05
2022-11-15T23:48:29.782Z,15.18
2022-11-15T23:50:57.522Z,15.40
2022-11-15T23:53:25.033Z,14.43
2022-11-15T23:56:02.993Z,14.57
2022-11-15T23:58:30.874Z,16.00
